Impacts METAR Board
IDs:

KSLC - Salt Lake City Intl, UT, US

Updated at: 1200 UTC 16 Sep 2019
Potential Impact None Slight Moderate High
Time 16/00Z 16/01Z 16/02Z 16/03Z 16/04Z 16/05Z 16/06Z 16/07Z 16/08Z 16/09Z 16/10Z 16/11Z 16/12Z
Temp90 88 82 77 78 76 78 78 76 74 74 75 75
Dewpt27 26 29 36 33 35 40 39 40 41 42 42 41
Altim29.87 29.86 29.86 29.86 29.87 29.88 29.89 29.89 29.91 29.90 29.89 29.90 29.90
VIS10 10 10 10 10 10 10 10 10 10 10 10 10
CIG230 230 -- -- -- -- -- -- -- -- -- -- 180
CoverBKNBKNSCTFEWFEWFEWFEWSCTSCTSCTSCTSCTBKN
FltCatVFRVFRVFRVFRVFRVFRVFRVFRVFRVFRVFRVFRVFR
WX--------------------------
WDir170180160120140130160160160150150160160
WSpd14 10 5 8 10 10 13 13 11 10 13 13 15
WGst-- 18 -- -- -- -- -- -- -- -- -- -- --
Raw hourly METARs
KSLC 152354Z 17014KT 10SM FEW100 SCT140 BKN230 32/M03 A2987 RMK AO2 SLP055 T03221028 10333 20300 56019 $
KSLC 160054Z 18010G18KT 10SM FEW100 FEW130 BKN230 31/M03 A2986 RMK AO2 SLP052 T03111033 $
KSLC 160154Z 16005KT 10SM FEW120 SCT200 28/M02 A2986 RMK AO2 SLP053 T02781017 $
KSLC 160254Z 12008KT 10SM FEW120 FEW200 25/02 A2986 RMK AO2 SLP059 T02500022 55002 $
KSLC 160354Z 14010KT 10SM FEW120 26/01 A2987 RMK AO2 SLP058 T02560006 $
KSLC 160454Z 13010KT 10SM FEW120 24/02 A2988 RMK AO2 SLP059 T02440017 $
KSLC 160554Z 16013KT 10SM FEW120 26/04 A2989 RMK AO2 SLP057 T02560044 10322 20239 51007 $
KSLC 160654Z COR 16013KT 10SM FEW120 SCT200 26/04 A2989 RMK AO2 SLP058 T02560039 403330183 $
KSLC 160754Z 16011KT 10SM FEW120 SCT200 24/04 A2991 RMK AO2 SLP062 T02440044 $
KSLC 160854Z AUTO 15010KT 10SM FEW120 SCT200 23/05 A2990 RMK AO2 SLP062 T02330050 50005 $
KSLC 160954Z 15013KT 10SM SCT200 23/06 A2989 RMK AO2 SLP057 T02330056 $
KSLC 161054Z 16013KT 10SM SCT200 24/06 A2990 RMK AO2 SLP059 T02390056 $
KSLC 161154Z 16015KT 10SM FEW100 BKN180 24/05 A2990 RMK AO2 SLP060 T02390050 10256 20233 55001 $



Page loaded:  12:12 UTC  |   05:12 AM Pacific  |   06:12 AM Mountain  |   07:12 AM Central  |   08:12 AM Eastern

 

ADVISORIES

FORECASTS

FORECASTS

OBSERVATIONS

USER TOOLS

ABOUT US